KCOS/COS METAR and TAF weather

Enter ICAO airport designator
Station Type Date Time Source
KCOS METAR 2020/01/26 18:54 UTC NOAA

KCOS 261854Z 08008KT 10SM SCT110 BKN220 07/M06 A3007 RMK AO2 SLP185 T00671061


Station Type Date Time Source
KCOS Decoded METAR 2020/01/26 18:54 UTC NOAA

COLORADO SPRINGS MUNI, CO, United States (KCOS) 38-49N 104-43W 1856M
Jan 26, 2020 - 01:54 PM EST / 2020.01.26 1854 UTC
Wind: from the E (080 degrees) at 9 MPH (8 KT):0
Visibility: 10 mile(s):0
Sky conditions: mostly cloudy
Temperature: 44.1 F (6.7 C)
Dew Point: 21.0 F (-6.1 C)
Relative Humidity: 39%
Pressure (altimeter): 30.07 in. Hg (1018 hPa)
ob: KCOS 261854Z 08008KT 10SM SCT110 BKN220 07/M06 A3007 RMK AO2 SLP185 T00671061
cycle: 19

Station Type Date Time Source
KCOS TAF 2020/01/26 18:36 UTC NOAA

TAF KCOS 261734Z 2618/2718 17007KT P6SM FEW150 SCT250
FM270300 03005KT P6SM SCT200
FM271200 01006KT P6SM BKN100 BKN200

Example: see airport list